Time;durP1;ratioP1;P1;durP2;ratioP2;P2;SDS_P1;SDS_P2;PMS_P1;PMS_P2;Temp;Humidity;BMP_temperature;BMP_pressure;BME280_temperature;BME280_humidity;BME280_pressure;Samples;Min_cycle;Max_cycle;Signal;HPM_P1;HPM_P2
2023/06/18 00:01:51;;;;;;;;;;;;;;;27.51;40.12;101359.91;5071620;28;19913;-72
2023/06/18 00:04:16;;;;;;;;;;;;;;;27.51;40.25;101357.19;5062959;28;19917;-73
2023/06/18 00:06:42;;;;;;;;;;;;;;;27.50;40.23;101359.09;5065939;28;19951;-72
2023/06/18 00:09:07;;;;;;;;;;;;;;;27.49;40.18;101360.16;5065383;28;20234;-72
2023/06/18 00:11:33;;;;;;;;;;;;;;;27.48;40.21;101363.91;5066801;28;19917;-73
2023/06/18 00:13:58;;;;;;;;;;;;;;;27.48;40.15;101360.34;5062805;28;20369;-73
2023/06/18 00:16:23;;;;;;;;;;;;;;;27.47;40.30;101362.22;5071258;28;19924;-72
2023/06/18 00:18:48;;;;;;;;;;;;;;;27.47;40.35;101358.66;5058054;28;19913;-72
2023/06/18 00:21:13;;;;;;;;;;;;;;;27.46;40.22;101359.72;5070490;28;19912;-72
2023/06/18 00:23:39;;;;;;;;;;;;;;;27.46;40.31;101351.53;5065768;28;19923;-71
2023/06/18 00:26:04;;;;;;;;;;;;;;;27.44;40.11;101357.19;5057747;28;19913;-72
2023/06/18 00:28:29;;;;;;;;;;;;;;;27.45;40.28;101355.31;5055105;28;19968;-71
2023/06/18 00:30:54;;;;;;;;;;;;;;;27.43;40.09;101360.97;5059913;28;19924;-72
2023/06/18 00:33:20;;;;;;;;;;;;;;;27.42;40.41;101357.41;5062724;28;20366;-72
2023/06/18 00:35:45;;;;;;;;;;;;;;;27.41;40.18;101358.47;5065763;28;19924;-73
2023/06/18 00:38:10;;;;;;;;;;;;;;;27.41;40.14;101357.66;5052366;28;20527;-73
2023/06/18 00:40:36;;;;;;;;;;;;;;;27.41;40.14;101354.91;5061834;28;19913;-72
2023/06/18 00:43:03;;;;;;;;;;;;;;;27.39;40.15;101366.03;5051306;28;20279;-72
2023/06/18 00:45:29;;;;;;;;;;;;;;;27.39;40.04;101357.84;5044878;28;19917;-73
2023/06/18 00:47:54;;;;;;;;;;;;;;;27.39;40.32;101363.31;5062241;28;20003;-73
2023/06/18 00:50:20;;;;;;;;;;;;;;;27.38;40.34;101358.91;5069142;28;19949;-73
2023/06/18 00:52:47;;;;;;;;;;;;;;;27.37;40.15;101357.22;5052333;28;19917;-72
2023/06/18 00:55:13;;;;;;;;;;;;;;;27.37;40.26;101350.94;5056252;28;19912;-73
2023/06/18 00:57:38;;;;;;;;;;;;;;;27.35;40.30;101340.22;5059812;28;19913;-72
2023/06/18 01:00:09;;;;;;;;;;;;;;;27.35;40.38;101353.84;5041601;28;19937;-72
2023/06/18 01:02:34;;;;;;;;;;;;;;;27.36;39.99;101352.00;5066022;28;20370;-72
2023/06/18 01:04:59;;;;;;;;;;;;;;;27.34;40.25;101352.19;5064221;28;19918;-72
2023/06/18 01:07:25;;;;;;;;;;;;;;;27.33;40.04;101353.25;5062468;28;19917;-72
2023/06/18 01:09:53;;;;;;;;;;;;;;;27.32;40.02;101354.31;5052303;28;20369;-71
2023/06/18 01:12:22;;;;;;;;;;;;;;;27.33;39.98;101352.41;5063931;28;19947;-72
2023/06/18 01:14:50;;;;;;;;;;;;;;;27.31;40.29;101349.88;5059639;28;19960;-72
2023/06/18 01:17:17;;;;;;;;;;;;;;;27.31;40.09;101343.59;5070598;28;19936;-72
2023/06/18 01:19:47;;;;;;;;;;;;;;;27.31;40.06;101338.97;5052830;28;19967;-72
2023/06/18 01:22:18;;;;;;;;;;;;;;;27.30;40.26;101344.66;5070785;28;19984;-72
2023/06/18 01:24:47;;;;;;;;;;;;;;;27.30;39.97;101344.66;5061156;28;19913;-72
2023/06/18 01:27:12;;;;;;;;;;;;;;;27.29;40.27;101340.25;5042401;28;19964;-72
2023/06/18 01:29:39;;;;;;;;;;;;;;;27.28;39.93;101338.56;5067837;28;19992;-72
2023/06/18 01:32:04;;;;;;;;;;;;;;;27.27;40.13;101336.88;5047591;28;19917;-72
2023/06/18 01:34:29;;;;;;;;;;;;;;;27.27;40.26;101337.75;5060585;28;20031;-72
2023/06/18 01:36:56;;;;;;;;;;;;;;;27.26;40.28;101329.75;5065859;28;20453;-72
2023/06/18 01:39:22;;;;;;;;;;;;;;;27.25;39.99;101334.38;5064544;28;19938;-72
2023/06/18 01:41:47;;;;;;;;;;;;;;;27.25;40.06;101328.06;5056475;28;19953;-72
2023/06/18 01:44:13;;;;;;;;;;;;;;;27.25;40.08;101328.06;5054537;28;19921;-73
2023/06/18 01:46:38;;;;;;;;;;;;;;;27.24;39.99;101329.97;5038280;28;19913;-72
2023/06/18 01:49:04;;;;;;;;;;;;;;;27.24;40.30;101331.88;5049636;28;19976;-72
2023/06/18 01:51:30;;;;;;;;;;;;;;;27.23;40.12;101327.44;5053018;28;19913;-72
2023/06/18 01:53:56;;;;;;;;;;;;;;;27.22;40.15;101326.59;5059579;28;19913;-72
2023/06/18 01:56:22;;;;;;;;;;;;;;;27.21;40.17;101330.38;5066792;28;19916;-71
2023/06/18 01:58:47;;;;;;;;;;;;;;;27.21;40.07;101329.56;5060273;28;19912;-73
2023/06/18 02:01:12;;;;;;;;;;;;;;;27.21;40.18;101324.09;5062826;28;19980;-72
2023/06/18 02:03:38;;;;;;;;;;;;;;;27.18;40.00;101317.16;5064076;28;19917;-72
2023/06/18 02:06:04;;;;;;;;;;;;;;;27.18;40.08;101308.97;5048910;28;19920;-71
2023/06/18 02:08:29;;;;;;;;;;;;;;;27.18;40.08;101311.69;5056476;28;19913;-72
2023/06/18 02:10:54;;;;;;;;;;;;;;;27.17;40.28;101312.75;5069073;28;19921;-72
2023/06/18 02:13:19;;;;;;;;;;;;;;;27.17;40.08;101320.94;5060363;28;19924;-72
2023/06/18 02:15:44;;;;;;;;;;;;;;;27.15;40.17;101321.16;5067698;28;19956;-72
2023/06/18 02:18:11;;;;;;;;;;;;;;;27.15;39.91;101325.78;5067231;28;20462;-71
2023/06/18 02:20:37;;;;;;;;;;;;;;;27.14;40.04;101322.22;5037448;28;19916;-72
2023/06/18 02:23:03;;;;;;;;;;;;;;;27.15;40.07;101317.59;5072945;28;19924;-71
2023/06/18 02:25:32;;;;;;;;;;;;;;;27.13;39.92;101317.81;5063660;28;19979;-72
2023/06/18 02:27:57;;;;;;;;;;;;;;;27.14;39.90;101321.38;5050730;28;19917;-71
2023/06/18 02:30:24;;;;;;;;;;;;;;;27.13;40.17;101319.69;5068707;28;19963;-72
2023/06/18 02:32:49;;;;;;;;;;;;;;;27.13;39.95;101316.97;5068039;28;19913;-72
2023/06/18 02:35:15;;;;;;;;;;;;;;;27.12;39.81;101318.84;5059412;28;19916;-72
2023/06/18 02:37:41;;;;;;;;;;;;;;;27.11;39.97;101314.47;5074750;28;19916;-72
2023/06/18 02:40:06;;;;;;;;;;;;;;;27.11;40.04;101316.34;5066702;28;19916;-72
2023/06/18 02:42:31;;;;;;;;;;;;;;;27.11;40.10;101316.34;5064219;28;19945;-72
2023/06/18 02:44:57;;;;;;;;;;;;;;;27.10;39.80;101315.53;5062100;28;20250;-72
2023/06/18 02:47:22;;;;;;;;;;;;;;;27.10;40.04;101312.78;5059099;28;19913;-72
2023/06/18 02:49:47;;;;;;;;;;;;;;;27.10;39.97;101310.06;5070135;28;19920;-72
2023/06/18 02:52:12;;;;;;;;;;;;;;;27.09;40.04;101302.91;5068056;28;19920;-72
2023/06/18 02:54:38;;;;;;;;;;;;;;;27.09;40.00;101302.03;5063398;28;19913;-72
2023/06/18 02:57:03;;;;;;;;;;;;;;;27.09;39.96;101305.63;5071071;28;19919;-72
2023/06/18 02:59:29;;;;;;;;;;;;;;;27.08;39.87;101300.38;5069164;28;19983;-72
2023/06/18 03:01:54;;;;;;;;;;;;;;;27.08;39.97;101294.91;5062293;28;19913;-72
2023/06/18 03:04:19;;;;;;;;;;;;;;;27.07;40.00;101294.06;5069402;28;19920;-72
2023/06/18 03:06:44;;;;;;;;;;;;;;;27.07;39.89;101285.88;5070483;28;19913;-72
2023/06/18 03:09:10;;;;;;;;;;;;;;;27.06;39.88;101286.94;5057894;28;19972;-72
2023/06/18 03:11:35;;;;;;;;;;;;;;;27.06;39.87;101289.69;5060356;28;19913;-72
2023/06/18 03:14:00;;;;;;;;;;;;;;;27.05;39.94;101278.94;5062688;28;20013;-72
2023/06/18 03:16:26;;;;;;;;;;;;;;;27.05;39.92;101287.13;5067987;28;19931;-72
2023/06/18 03:18:51;;;;;;;;;;;;;;;27.04;39.99;101286.31;5068830;28;19925;-72
2023/06/18 03:21:16;;;;;;;;;;;;;;;27.05;40.04;101287.97;5062680;28;20345;-72
2023/06/18 03:23:43;;;;;;;;;;;;;;;27.04;39.90;101285.47;5066267;28;19916;-72
2023/06/18 03:26:08;;;;;;;;;;;;;;;27.04;40.02;101277.28;5064980;28;20369;-72
2023/06/18 03:28:33;;;;;;;;;;;;;;;27.03;39.96;101275.63;5064009;28;19920;-72
2023/06/18 03:30:58;;;;;;;;;;;;;;;27.02;39.94;101282.13;5065210;28;19912;-72
2023/06/18 03:33:23;;;;;;;;;;;;;;;27.02;40.14;101279.41;5068178;28;20011;-73
2023/06/18 03:35:49;;;;;;;;;;;;;;;27.02;39.90;101272.06;5056388;28;19913;-72
2023/06/18 03:38:15;;;;;;;;;;;;;;;27.01;40.03;101275.81;5055804;28;19913;-72
2023/06/18 03:40:40;;;;;;;;;;;;;;;27.01;39.89;101272.25;5064998;28;19932;-72
2023/06/18 03:43:05;;;;;;;;;;;;;;;27.00;39.69;101276.03;5057850;28;19980;-72
2023/06/18 03:45:30;;;;;;;;;;;;;;;26.99;39.81;101269.75;5072332;28;20404;-72
2023/06/18 03:47:55;;;;;;;;;;;;;;;26.99;39.88;101271.63;5061111;28;19959;-71
2023/06/18 03:50:21;;;;;;;;;;;;;;;26.99;39.86;101274.38;5051714;28;19921;-72
2023/06/18 03:52:46;;;;;;;;;;;;;;;26.98;39.95;101280.88;5063695;28;19920;-71
2023/06/18 03:55:11;;;;;;;;;;;;;;;26.97;40.06;101288.19;5067010;28;19921;-72
2023/06/18 03:57:36;;;;;;;;;;;;;;;26.98;39.92;101287.16;5062016;28;19912;-71
2023/06/18 04:00:03;;;;;;;;;;;;;;;26.97;39.93;101293.66;5069153;28;19999;-72
2023/06/18 04:02:28;;;;;;;;;;;;;;;26.97;39.86;101290.09;5058899;28;19987;-72
2023/06/18 04:04:53;;;;;;;;;;;;;;;26.97;39.86;101295.56;5067990;28;20365;-72
2023/06/18 04:07:18;;;;;;;;;;;;;;;26.95;39.87;101289.47;5068713;28;19912;-71
2023/06/18 04:09:44;;;;;;;;;;;;;;;26.95;39.88;101298.50;5037467;28;19916;-71
2023/06/18 04:12:09;;;;;;;;;;;;;;;26.95;39.81;101301.22;5075926;28;19913;-72
2023/06/18 04:14:35;;;;;;;;;;;;;;;26.94;39.82;101302.28;4990507;28;1957008;-73
2023/06/18 04:17:00;;;;;;;;;;;;;;;26.94;39.88;101305.03;5067611;28;19917;-72
2023/06/18 04:19:25;;;;;;;;;;;;;;;26.93;39.99;101308.78;5054889;28;19917;-72
2023/06/18 04:21:51;;;;;;;;;;;;;;;26.92;39.82;101304.38;5064462;28;19965;-72
2023/06/18 04:24:16;;;;;;;;;;;;;;;26.91;39.75;101309.00;5064833;28;19923;-72
2023/06/18 04:26:41;;;;;;;;;;;;;;;26.92;39.88;101304.38;5054648;28;19921;-72
2023/06/18 04:29:07;;;;;;;;;;;;;;;26.91;39.90;101314.47;5064832;28;19984;-72
2023/06/18 04:31:32;;;;;;;;;;;;;;;26.91;39.75;101310.91;5043015;28;19951;-72
2023/06/18 04:33:57;;;;;;;;;;;;;;;26.90;39.81;101312.78;5072868;28;20008;-71
2023/06/18 04:36:22;;;;;;;;;;;;;;;26.90;39.71;101309.22;5056516;28;19913;-72
2023/06/18 04:38:47;;;;;;;;;;;;;;;26.89;39.95;101311.13;5069485;28;19913;-72
2023/06/18 04:41:13;;;;;;;;;;;;;;;26.89;40.11;101318.47;5064771;28;19982;-72
2023/06/18 04:43:38;;;;;;;;;;;;;;;26.89;39.74;101322.03;5060249;28;19980;-71
2023/06/18 04:46:03;;;;;;;;;;;;;;;26.87;40.08;101324.13;5071257;28;20413;-71
2023/06/18 04:48:28;;;;;;;;;;;;;;;26.86;39.83;101319.72;5062258;28;19920;-72
2023/06/18 04:50:53;;;;;;;;;;;;;;;26.86;39.90;101319.72;5063763;28;19913;-71
2023/06/18 04:53:19;;;;;;;;;;;;;;;26.86;39.84;101318.88;5064612;28;19935;-72
2023/06/18 04:55:44;;;;;;;;;;;;;;;26.86;39.80;101321.63;5067975;28;19919;-72
2023/06/18 04:58:10;;;;;;;;;;;;;;;26.85;39.85;101314.47;5061272;28;19913;-72
2023/06/18 05:00:35;;;;;;;;;;;;;;;26.84;39.87;101315.50;5057941;28;19920;-72
2023/06/18 05:03:04;;;;;;;;;;;;;;;26.83;40.02;101316.56;5059577;28;19984;-72
2023/06/18 05:05:29;;;;;;;;;;;;;;;26.82;39.81;101307.56;5066304;28;19917;-71
2023/06/18 05:07:55;;;;;;;;;;;;;;;26.83;39.94;101302.94;5066246;28;19936;-71
2023/06/18 05:10:20;;;;;;;;;;;;;;;26.82;39.83;101302.09;5057044;28;19913;-72
2023/06/18 05:12:45;;;;;;;;;;;;;;;26.81;40.09;101302.31;5055080;28;19979;-72
2023/06/18 05:15:10;;;;;;;;;;;;;;;26.81;39.83;101305.88;5059674;28;20000;-72
2023/06/18 05:17:35;;;;;;;;;;;;;;;26.79;40.07;101299.78;5063492;28;19912;-72
2023/06/18 05:20:01;;;;;;;;;;;;;;;26.79;39.90;101307.97;5068053;28;19935;-72
2023/06/18 05:22:26;;;;;;;;;;;;;;;26.79;40.05;101307.13;5067348;28;19917;-72
2023/06/18 05:24:52;;;;;;;;;;;;;;;26.79;39.92;101307.13;5057870;28;19932;-72
2023/06/18 05:27:17;;;;;;;;;;;;;;;26.78;39.83;101311.75;5054533;28;20057;-72
2023/06/18 05:29:42;;;;;;;;;;;;;;;26.78;40.06;101310.91;5062561;28;19932;-72
2023/06/18 05:32:09;;;;;;;;;;;;;;;26.77;40.02;101310.09;5059888;28;19939;-72
2023/06/18 05:34:34;;;;;;;;;;;;;;;26.77;39.90;101312.81;5070147;28;19935;-72
2023/06/18 05:36:59;;;;;;;;;;;;;;;26.77;39.81;101314.69;5055379;28;19917;-72
2023/06/18 05:39:25;;;;;;;;;;;;;;;26.77;39.90;101314.69;5070329;28;19912;-72
2023/06/18 05:41:52;;;;;;;;;;;;;;;26.76;39.99;101316.59;5062617;28;19914;-73
2023/06/18 05:44:18;;;;;;;;;;;;;;;26.76;40.09;101324.78;5043753;28;19967;-73
2023/06/18 05:46:43;;;;;;;;;;;;;;;26.75;40.02;101317.63;5065131;28;19917;-72
2023/06/18 05:49:09;;;;;;;;;;;;;;;26.75;40.04;101320.34;5051558;28;20322;-72
2023/06/18 05:51:35;;;;;;;;;;;;;;;26.75;39.91;101323.06;5059818;28;19920;-71
2023/06/18 05:54:00;;;;;;;;;;;;;;;26.74;40.15;101326.03;5064003;28;19913;-71
2023/06/18 05:56:25;;;;;;;;;;;;;;;26.74;40.02;101323.28;5065937;28;19920;-72
2023/06/18 05:58:50;;;;;;;;;;;;;;;26.73;39.93;101327.91;5056941;28;19912;-71
2023/06/18 06:01:16;;;;;;;;;;;;;;;26.73;40.02;101330.66;5073809;28;20019;-71
2023/06/18 06:03:41;;;;;;;;;;;;;;;26.73;39.81;101333.38;5057296;28;19925;-71
2023/06/18 06:06:06;;;;;;;;;;;;;;;26.72;39.91;101328.97;5065497;28;19913;-71
2023/06/18 06:08:32;;;;;;;;;;;;;;;26.73;40.12;101316.16;5066234;28;19924;-71
2023/06/18 06:10:57;;;;;;;;;;;;;;;26.72;40.27;101319.94;5058774;28;19944;-72
2023/06/18 06:13:23;;;;;;;;;;;;;;;26.72;39.91;101322.66;5066047;28;19943;-72
2023/06/18 06:15:48;;;;;;;;;;;;;;;26.70;39.98;101317.41;5061792;28;19940;-72
2023/06/18 06:18:13;;;;;;;;;;;;;;;26.71;40.07;101321.81;5061772;28;19947;-71
2023/06/18 06:20:38;;;;;;;;;;;;;;;26.71;40.03;101320.97;5064701;28;19913;-72
2023/06/18 06:23:04;;;;;;;;;;;;;;;26.70;40.16;101322.88;5067826;28;19941;-72
2023/06/18 06:25:29;;;;;;;;;;;;;;;26.69;40.23;101323.94;5054728;28;19964;-72
2023/06/18 06:27:54;;;;;;;;;;;;;;;26.68;40.03;101327.72;5054465;28;19954;-71
2023/06/18 06:30:19;;;;;;;;;;;;;;;26.69;40.17;101325.81;5061118;28;19917;-72
2023/06/18 06:32:44;;;;;;;;;;;;;;;26.68;39.94;101325.00;5051271;28;20080;-72
2023/06/18 06:35:10;;;;;;;;;;;;;;;26.68;39.93;101327.72;5051663;28;19944;-71
2023/06/18 06:37:35;;;;;;;;;;;;;;;26.67;40.15;101323.28;5049029;28;19913;-71
2023/06/18 06:40:00;;;;;;;;;;;;;;;26.67;40.27;101332.31;5049995;28;19917;-71
2023/06/18 06:42:26;;;;;;;;;;;;;;;26.67;40.10;101328.75;5061179;28;19943;-71
2023/06/18 06:44:52;;;;;;;;;;;;;;;26.65;40.21;101328.97;5062467;28;20003;-71
2023/06/18 06:47:17;;;;;;;;;;;;;;;26.65;40.16;101331.69;5062089;28;19951;-71
2023/06/18 06:49:42;;;;;;;;;;;;;;;26.64;40.06;101327.28;5050905;28;19971;-71
2023/06/18 06:52:07;;;;;;;;;;;;;;;26.65;40.04;101328.97;5057892;28;20312;-71
2023/06/18 06:54:33;;;;;;;;;;;;;;;26.64;39.88;101330.03;5064451;28;19956;-71
2023/06/18 06:56:58;;;;;;;;;;;;;;;26.64;40.04;101330.03;5065916;28;19938;-71
2023/06/18 06:59:23;;;;;;;;;;;;;;;26.65;40.10;101333.59;5052710;28;20380;-71
2023/06/18 07:01:49;;;;;;;;;;;;;;;26.64;40.11;101330.03;5073827;28;19918;-71
2023/06/18 07:04:14;;;;;;;;;;;;;;;26.63;40.30;101331.06;5057701;28;19917;-71
2023/06/18 07:06:39;;;;;;;;;;;;;;;26.64;40.37;101332.75;5062579;28;19958;-71
2023/06/18 07:09:05;;;;;;;;;;;;;;;26.64;40.38;101331.91;5068570;28;19912;-71
2023/06/18 07:11:30;;;;;;;;;;;;;;;26.63;40.29;101328.34;5053565;28;19921;-71
2023/06/18 07:13:55;;;;;;;;;;;;;;;26.63;40.07;101328.34;5054673;28;19917;-71
2023/06/18 07:16:21;;;;;;;;;;;;;;;26.62;40.24;101329.38;5067756;28;19928;-71
2023/06/18 07:18:46;;;;;;;;;;;;;;;26.63;40.11;101328.34;5065464;28;19917;-71
2023/06/18 07:21:11;;;;;;;;;;;;;;;26.63;40.30;101330.22;5062905;28;20019;-71
2023/06/18 07:23:36;;;;;;;;;;;;;;;26.63;40.23;101324.75;5073080;28;19920;-71
2023/06/18 07:26:02;;;;;;;;;;;;;;;26.62;40.24;101326.66;5058607;28;19936;-72
2023/06/18 07:28:27;;;;;;;;;;;;;;;26.62;40.13;101323.09;5072879;28;19916;-72
2023/06/18 07:30:53;;;;;;;;;;;;;;;26.61;40.13;101319.53;5064869;28;19980;-72
2023/06/18 07:33:18;;;;;;;;;;;;;;;26.62;40.26;101318.47;5060881;28;19919;-72
2023/06/18 07:35:43;;;;;;;;;;;;;;;26.62;40.43;101326.66;5058550;28;19999;-72
2023/06/18 07:38:08;;;;;;;;;;;;;;;26.62;40.21;101321.19;5061293;28;20468;-71
2023/06/18 07:40:36;;;;;;;;;;;;;;;26.62;40.08;101317.63;5052741;28;19908;-71
2023/06/18 07:43:02;;;;;;;;;;;;;;;26.62;40.32;101318.47;5062592;28;19960;-72
2023/06/18 07:45:27;;;;;;;;;;;;;;;26.62;40.39;101312.19;5069081;28;19920;-72
2023/06/18 07:47:52;;;;;;;;;;;;;;;26.62;40.18;101318.47;5064460;28;19916;-72
2023/06/18 07:50:17;;;;;;;;;;;;;;;26.62;40.33;101317.63;5073260;28;19917;-72
2023/06/18 07:52:42;;;;;;;;;;;;;;;26.62;40.18;101315.75;5059977;28;20401;-72
2023/06/18 07:55:08;;;;;;;;;;;;;;;26.62;40.39;101317.63;5067227;28;20357;-72
2023/06/18 07:57:33;;;;;;;;;;;;;;;26.62;40.36;101314.91;5068743;28;19913;-72
2023/06/18 07:59:58;;;;;;;;;;;;;;;26.63;40.31;101322.03;5056955;28;19916;-72
2023/06/18 08:02:23;;;;;;;;;;;;;;;26.63;40.21;101316.56;5076397;28;20376;-71
2023/06/18 08:04:49;;;;;;;;;;;;;;;26.62;40.20;101310.28;5060457;28;19948;-72
2023/06/18 08:07:14;;;;;;;;;;;;;;;26.62;40.43;101310.28;5066880;28;19923;-72
2023/06/18 08:09:39;;;;;;;;;;;;;;;26.62;40.29;101315.75;5068199;28;19921;-72
2023/06/18 08:12:05;;;;;;;;;;;;;;;26.62;40.25;101304.81;5066692;28;19913;-72
2023/06/18 08:14:30;;;;;;;;;;;;;;;26.63;40.30;101309.25;5060998;28;19936;-72
2023/06/18 08:16:55;;;;;;;;;;;;;;;26.63;40.26;101314.72;5074644;28;19913;-72
2023/06/18 08:19:20;;;;;;;;;;;;;;;26.63;40.36;101308.41;5059688;28;19917;-72
2023/06/18 08:21:47;;;;;;;;;;;;;;;26.63;40.06;101305.66;5063641;28;19916;-72
2023/06/18 08:24:12;;;;;;;;;;;;;;;26.63;40.20;101308.41;5071252;28;19988;-72
2023/06/18 08:26:37;;;;;;;;;;;;;;;26.63;40.42;101312.00;5056017;28;19920;-72
2023/06/18 08:29:02;;;;;;;;;;;;;;;26.63;40.20;101309.25;5072433;28;19913;-72
2023/06/18 08:31:29;;;;;;;;;;;;;;;26.63;40.28;101312.00;5064292;28;19913;-72
2023/06/18 08:33:54;;;;;;;;;;;;;;;26.64;40.40;101313.66;5060443;28;19919;-72
2023/06/18 08:36:22;;;;;;;;;;;;;;;26.64;40.14;101312.81;5068399;28;19917;-72
2023/06/18 08:38:47;;;;;;;;;;;;;;;26.64;40.42;101304.63;5062631;28;20354;-72
2023/06/18 08:41:12;;;;;;;;;;;;;;;26.65;40.22;101304.41;5045406;28;19919;-72
2023/06/18 08:43:38;;;;;;;;;;;;;;;26.65;40.34;101303.59;5066399;28;19999;-72
2023/06/18 08:46:13;;;;;;;;;;;;;;;26.66;40.22;101302.53;5049715;28;19919;-71
2023/06/18 08:48:42;;;;;;;;;;;;;;;26.65;40.45;101301.69;5058058;28;20553;-71
2023/06/18 08:51:08;;;;;;;;;;;;;;;26.66;40.30;101302.53;5053379;28;19917;-71
2023/06/18 08:53:45;;;;;;;;;;;;;;;26.66;40.42;101292.44;5039658;28;19913;-71
2023/06/18 08:56:10;;;;;;;;;;;;;;;26.66;40.33;101297.06;5072998;28;19923;-71
2023/06/18 08:58:39;;;;;;;;;;;;;;;26.66;40.48;101302.53;5047406;28;19940;-71
2023/06/18 09:01:05;;;;;;;;;;;;;;;26.67;40.21;101306.91;5042368;28;19914;-73
2023/06/18 09:03:31;;;;;;;;;;;;;;;26.67;40.30;101296.84;5052440;28;19917;-71
2023/06/18 09:05:56;;;;;;;;;;;;;;;26.66;40.23;101297.91;5043628;28;19916;-72
2023/06/18 09:08:21;;;;;;;;;;;;;;;26.67;40.50;101302.31;5035306;28;19920;-72
2023/06/18 09:10:47;;;;;;;;;;;;;;;26.66;40.28;101295.19;5062696;28;19928;-72
2023/06/18 09:13:12;;;;;;;;;;;;;;;26.66;40.31;101297.91;5053283;28;19955;-71
2023/06/18 09:15:37;;;;;;;;;;;;;;;26.67;40.45;101296.84;5042291;28;19980;-71
2023/06/18 09:18:02;;;;;;;;;;;;;;;26.67;40.45;101307.75;5071723;28;19917;-71
2023/06/18 09:20:27;;;;;;;;;;;;;;;26.67;40.44;101301.47;5059421;28;19913;-71
2023/06/18 09:22:53;;;;;;;;;;;;;;;26.66;40.42;101302.53;5046199;28;19921;-71
2023/06/18 09:25:18;;;;;;;;;;;;;;;26.68;40.58;101311.34;5067736;28;19936;-72
2023/06/18 09:27:44;;;;;;;;;;;;;;;26.68;40.41;101305.91;5056024;28;19912;-71
2023/06/18 09:30:12;;;;;;;;;;;;;;;26.67;40.34;101306.91;5053196;28;19912;-71
2023/06/18 09:32:47;;;;;;;;;;;;;;;26.67;40.58;101304.19;5057327;28;20393;-71
2023/06/18 09:35:16;;;;;;;;;;;;;;;26.69;40.29;101304.00;5061892;28;20405;-72
2023/06/18 09:37:41;;;;;;;;;;;;;;;26.69;40.57;101306.72;5065080;28;19913;-73
2023/06/18 09:40:16;;;;;;;;;;;;;;;26.69;40.64;101304.84;5047794;28;19913;-72
2023/06/18 09:42:41;;;;;;;;;;;;;;;26.71;40.50;101301.88;5058639;28;19939;-71
2023/06/18 09:45:06;;;;;;;;;;;;;;;26.70;40.86;101295.59;5050920;28;19916;-72
2023/06/18 09:47:31;;;;;;;;;;;;;;;26.71;40.92;101296.44;5061149;28;19916;-72
2023/06/18 09:49:57;;;;;;;;;;;;;;;26.71;40.58;101302.72;5045815;28;20277;-71
2023/06/18 09:52:22;;;;;;;;;;;;;;;26.71;40.54;101297.28;5067845;28;19940;-71
2023/06/18 09:54:47;;;;;;;;;;;;;;;26.72;40.55;101296.25;5054014;28;19970;-72
2023/06/18 09:57:13;;;;;;;;;;;;;;;26.73;40.54;101295.19;5052846;28;19913;-72
2023/06/18 09:59:39;;;;;;;;;;;;;;;26.73;40.38;101294.34;5059784;28;19913;-72
2023/06/18 10:02:04;;;;;;;;;;;;;;;26.74;40.50;101290.56;5048714;28;19919;-72
2023/06/18 10:04:32;;;;;;;;;;;;;;;26.74;40.66;101288.66;5067256;28;20388;-72
2023/06/18 10:06:58;;;;;;;;;;;;;;;26.74;40.60;101296.84;5063888;28;19920;-72
2023/06/18 10:09:24;;;;;;;;;;;;;;;26.76;40.41;101304.81;5059768;28;19940;-72
2023/06/18 10:11:50;;;;;;;;;;;;;;;26.76;40.44;101302.09;5067772;28;19920;-72
2023/06/18 10:14:16;;;;;;;;;;;;;;;26.77;40.69;101301.06;5063059;28;19913;-71
2023/06/18 10:16:43;;;;;;;;;;;;;;;26.76;40.75;101289.31;5047962;28;19913;-71
2023/06/18 10:19:12;;;;;;;;;;;;;;;26.77;40.64;101290.97;5070408;28;19913;-71
2023/06/18 10:21:38;;;;;;;;;;;;;;;26.77;40.49;101290.97;5052884;28;19956;-72
2023/06/18 10:24:24;;;;;;;;;;;;;;;26.78;40.64;101286.38;5051629;28;19979;-71
2023/06/18 10:26:49;;;;;;;;;;;;;;;26.78;40.81;101284.47;5060276;28;20364;-71
2023/06/18 10:29:15;;;;;;;;;;;;;;;26.78;40.54;101284.47;5042716;28;19916;-71
2023/06/18 10:31:40;;;;;;;;;;;;;;;26.79;40.60;101272.50;5067692;28;20032;-71
2023/06/18 10:34:05;;;;;;;;;;;;;;;26.79;40.69;101277.13;5044323;28;19917;-71
2023/06/18 10:36:31;;;;;;;;;;;;;;;26.80;40.69;101274.16;5047972;28;19929;-72
2023/06/18 10:38:56;;;;;;;;;;;;;;;26.80;40.54;101263.25;5064627;28;20684;-71
2023/06/18 10:41:22;;;;;;;;;;;;;;;26.81;40.81;101264.97;5062825;28;19948;-71
2023/06/18 10:43:51;;;;;;;;;;;;;;;26.83;40.70;101262.00;5057516;28;19927;-71
2023/06/18 10:46:16;;;;;;;;;;;;;;;26.82;40.68;101261.16;5054375;28;19935;-71
2023/06/18 10:48:42;;;;;;;;;;;;;;;26.84;40.72;101259.06;5042289;28;19920;-71
2023/06/18 10:51:12;;;;;;;;;;;;;;;26.85;40.58;101254.47;5053012;28;19936;-70
2023/06/18 10:53:37;;;;;;;;;;;;;;;26.85;40.85;101249.00;5065096;28;19913;-71
2023/06/18 10:56:02;;;;;;;;;;;;;;;26.85;40.46;101244.38;5043810;28;20164;-71
2023/06/18 10:58:31;;;;;;;;;;;;;;;26.87;40.62;101242.25;5073017;28;20488;-71
2023/06/18 11:00:56;;;;;;;;;;;;;;;26.89;40.64;101247.53;5064640;28;19928;-72
2023/06/18 11:03:21;;;;;;;;;;;;;;;26.90;40.71;101246.47;5045175;28;19921;-72
2023/06/18 11:05:47;;;;;;;;;;;;;;;26.92;40.79;101244.34;5066168;28;19917;-72
2023/06/18 11:08:13;;;;;;;;;;;;;;;26.92;40.74;101242.44;5069977;28;19916;-71
2023/06/18 11:10:42;;;;;;;;;;;;;;;26.94;40.70;101244.16;5062597;28;19913;-72
2023/06/18 11:13:08;;;;;;;;;;;;;;;26.94;40.38;101236.81;5073851;28;19955;-71
2023/06/18 11:15:34;;;;;;;;;;;;;;;26.95;40.51;101235.75;5061420;28;19924;-71
2023/06/18 11:18:03;;;;;;;;;;;;;;;26.95;40.56;101235.75;5050227;28;19920;-72
2023/06/18 11:20:32;;;;;;;;;;;;;;;26.96;40.61;101236.56;5057380;28;19956;-72
2023/06/18 11:22:58;;;;;;;;;;;;;;;26.95;40.52;101237.63;5041172;28;19940;-72
2023/06/18 11:25:24;;;;;;;;;;;;;;;26.96;40.67;101233.84;5071106;28;19919;-72
2023/06/18 11:27:49;;;;;;;;;;;;;;;26.96;40.63;101231.13;5044658;28;19948;-72
2023/06/18 11:30:15;;;;;;;;;;;;;;;26.96;40.55;101231.94;5064584;28;19935;-72
2023/06/18 11:32:41;;;;;;;;;;;;;;;26.97;40.67;101232.78;5053004;28;20369;-72
2023/06/18 11:35:07;;;;;;;;;;;;;;;26.97;40.75;101228.16;5068334;28;19913;-72
2023/06/18 11:37:32;;;;;;;;;;;;;;;26.97;40.57;101235.50;5060348;28;19921;-72
2023/06/18 11:39:57;;;;;;;;;;;;;;;26.97;40.73;101233.63;5072125;28;19923;-72
2023/06/18 11:42:25;;;;;;;;;;;;;;;26.97;40.72;101228.16;5063683;28;19980;-72
2023/06/18 11:44:51;;;;;;;;;;;;;;;26.97;40.57;101230.91;5060278;28;19916;-72
2023/06/18 11:47:16;;;;;;;;;;;;;;;26.98;40.90;101220.84;5071031;28;19948;-72
2023/06/18 11:49:42;;;;;;;;;;;;;;;26.98;40.72;101223.56;5062158;28;19917;-72
2023/06/18 11:52:07;;;;;;;;;;;;;;;26.98;40.96;101221.69;5072169;28;20404;-72
2023/06/18 11:54:39;;;;;;;;;;;;;;;26.98;40.73;101218.94;5062568;28;19917;-72
2023/06/18 11:57:11;;;;;;;;;;;;;;;26.99;40.75;101219.78;5062933;28;19912;-72
2023/06/18 11:59:38;;;;;;;;;;;;;;;26.99;40.56;101217.06;5064684;28;19919;-72
2023/06/18 12:02:10;;;;;;;;;;;;;;;26.99;40.93;101223.34;5066115;28;19921;-72
2023/06/18 12:04:35;;;;;;;;;;;;;;;26.99;40.86;101214.31;5059765;28;19921;-72
2023/06/18 12:07:01;;;;;;;;;;;;;;;26.99;40.85;101217.06;5068840;28;19912;-72
2023/06/18 12:09:29;;;;;;;;;;;;;;;26.99;40.79;101208.88;5065172;28;19912;-73
2023/06/18 12:12:13;;;;;;;;;;;;;;;26.99;40.92;101211.59;5064931;28;19973;-71
2023/06/18 12:14:42;;;;;;;;;;;;;;;26.99;40.87;101219.78;5070364;28;19928;-72
2023/06/18 12:17:30;;;;;;;;;;;;;;;26.99;40.86;101206.13;5056112;28;19917;-71
2023/06/18 12:19:59;;;;;;;;;;;;;;;26.99;40.75;101206.13;5010202;28;20533;-72
2023/06/18 12:22:25;;;;;;;;;;;;;;;26.99;41.07;101211.59;4980572;28;20326;-72
2023/06/18 12:24:50;;;;;;;;;;;;;;;26.99;40.89;101206.97;4988454;28;19956;-72
2023/06/18 12:27:15;;;;;;;;;;;;;;;27.00;40.75;101207.81;5005688;28;19989;-72
2023/06/18 12:29:41;;;;;;;;;;;;;;;27.00;40.63;101213.25;5004172;28;19965;-72